createdAt,value
2022-08-07T00:02:36.475Z,102674.56
2022-08-07T00:07:20.812Z,102683.50
2022-08-07T00:12:22.716Z,102682.13
2022-08-07T00:17:30.046Z,102679.22
2022-08-07T00:22:37.452Z,102676.03
2022-08-07T00:27:52.533Z,102675.59
2022-08-07T00:32:57.381Z,102670.50
2022-08-07T00:38:01.136Z,102663.31
2022-08-07T00:43:02.845Z,102662.81
2022-08-07T00:48:09.740Z,102664.00
2022-08-07T00:53:13.069Z,102656.75
2022-08-07T00:58:14.683Z,102654.97
2022-08-07T01:03:17.077Z,102656.75
2022-08-07T01:08:18.934Z,102657.53
2022-08-07T01:13:21.917Z,102652.66
2022-08-07T01:18:25.009Z,102639.91
2022-08-07T01:23:38.549Z,102632.63
2022-08-07T01:28:45.738Z,102635.47
2022-08-07T01:33:55.700Z,102642.22
2022-08-07T01:39:09.477Z,102626.97
2022-08-07T01:44:13.273Z,102631.84
2022-08-07T01:49:16.488Z,102633.81
2022-08-07T01:54:33.225Z,102631.97
2022-08-07T01:59:50.501Z,102626.28
2022-08-07T02:05:04.674Z,102663.38
2022-08-07T02:10:14.328Z,102659.38
2022-08-07T02:15:28.035Z,102653.88
2022-08-07T02:20:32.097Z,102652.53
2022-08-07T02:26:31.668Z,102656.78
2022-08-07T02:31:18.685Z,102650.59
2022-08-07T02:36:30.777Z,102647.03
2022-08-07T02:41:39.814Z,102635.31
2022-08-07T02:46:53.814Z,102641.13
2022-08-07T02:59:03.205Z,102652.84
2022-08-07T03:04:12.497Z,102675.97
2022-08-07T03:09:43.809Z,102681.75
2022-08-07T03:14:42.880Z,102667.38
2022-08-07T03:19:55.083Z,102672.59
2022-08-07T03:25:00.342Z,102676.41
2022-08-07T03:30:06.013Z,102681.34
2022-08-07T03:35:18.527Z,102682.69
2022-08-07T03:40:30.898Z,102678.63
2022-08-07T03:45:39.679Z,102680.59
2022-08-07T03:50:55.692Z,102671.63
2022-08-07T03:56:04.450Z,102670.94
2022-08-07T04:01:11.669Z,102680.63
2022-08-07T04:06:36.206Z,102678.06
2022-08-07T04:12:24.514Z,102672.34
2022-08-07T04:17:03.230Z,102675.88
2022-08-07T04:22:14.446Z,102677.81
2022-08-07T04:27:25.346Z,102675.53
2022-08-07T04:32:34.708Z,102677.44
2022-08-07T04:37:52.902Z,102671.59
2022-08-07T04:43:03.610Z,102668.16
2022-08-07T04:48:38.087Z,102688.13
2022-08-07T04:54:05.474Z,102696.22
2022-08-07T05:00:11.889Z,102710.69
2022-08-07T05:05:03.274Z,102706.03
2022-08-07T05:10:21.871Z,102719.69
2022-08-07T05:15:36.298Z,102734.19
2022-08-07T05:20:46.550Z,102748.13
2022-08-07T05:26:10.612Z,102758.00
2022-08-07T05:31:16.774Z,102768.81
2022-08-07T05:36:30.192Z,102774.03
2022-08-07T05:42:01.735Z,102782.06
2022-08-07T05:46:55.320Z,102779.19
2022-08-07T05:52:00.048Z,102771.75
2022-08-07T05:57:06.851Z,102778.94
2022-08-07T06:02:22.529Z,102775.38
2022-08-07T06:08:05.454Z,102756.34
2022-08-07T06:12:57.795Z,102761.00
2022-08-07T06:17:59.843Z,102750.03
2022-08-07T06:23:46.421Z,102711.06
2022-08-07T06:28:32.777Z,102707.34
2022-08-07T06:33:36.201Z,102689.69
2022-08-07T06:38:38.211Z,102667.28
2022-08-07T06:43:46.096Z,102666.25
2022-08-07T06:48:52.661Z,102658.06
2022-08-07T06:55:29.353Z,102661.56
2022-08-07T07:00:12.200Z,102624.22
2022-08-07T07:04:56.947Z,102620.28
2022-08-07T07:09:59.061Z,102615.94
2022-08-07T07:22:11.441Z,102592.78
2022-08-07T07:27:21.328Z,102586.50
2022-08-07T07:32:24.854Z,102580.72
2022-08-07T07:37:44.470Z,102577.34
2022-08-07T07:42:55.665Z,102567.72
2022-08-07T07:47:59.775Z,102565.81
2022-08-07T07:53:03.075Z,102561.44
2022-08-07T07:58:06.177Z,102555.56
2022-08-07T08:03:16.853Z,102555.44
2022-08-07T08:08:39.419Z,102547.81
2022-08-07T08:13:53.867Z,102551.97
2022-08-07T08:19:00.390Z,102557.94
2022-08-07T08:24:44.855Z,102543.59
2022-08-07T08:29:56.230Z,102548.00
2022-08-07T08:34:59.868Z,102549.72
2022-08-07T08:40:03.093Z,102538.53
2022-08-07T08:45:17.001Z,102534.16
2022-08-07T08:50:35.007Z,102529.81
2022-08-07T08:55:58.518Z,102535.09
2022-08-07T09:01:40.053Z,102535.09
2022-08-07T09:06:47.833Z,102534.19
2022-08-07T09:12:02.826Z,102533.28
2022-08-07T09:17:33.934Z,102528.91
2022-08-07T09:24:32.197Z,102534.16
2022-08-07T09:30:04.644Z,102527.03
2022-08-07T09:34:22.691Z,102532.22
2022-08-07T09:39:57.951Z,102515.44
2022-08-07T09:47:25.883Z,102516.53
2022-08-07T09:50:54.869Z,102514.78
2022-08-07T09:56:47.847Z,102498.78
2022-08-07T10:02:11.288Z,102501.59
2022-08-07T10:07:53.411Z,102497.97
2022-08-07T10:12:59.421Z,102492.69
2022-08-07T10:18:08.846Z,102484.38
2022-08-07T10:24:04.877Z,102483.78
2022-08-07T10:29:12.393Z,102480.50
2022-08-07T10:34:59.024Z,102470.59
2022-08-07T10:40:21.832Z,102464.25
2022-08-07T10:45:44.362Z,102457.88
2022-08-07T10:50:54.886Z,102456.56
2022-08-07T10:56:44.184Z,102455.91
2022-08-07T11:02:04.775Z,102441.50
2022-08-07T11:07:59.629Z,102440.00
2022-08-07T11:13:01.917Z,102436.75
2022-08-07T11:18:15.865Z,102426.44
2022-08-07T11:23:30.627Z,102429.91
2022-08-07T11:28:53.516Z,102423.88
2022-08-07T11:34:10.237Z,102420.34
2022-08-07T11:46:43.762Z,102408.69
2022-08-07T11:52:05.723Z,102399.59
2022-08-07T11:57:59.575Z,102404.53
2022-08-07T12:03:04.947Z,102394.28
2022-08-07T12:08:59.240Z,102394.03
2022-08-07T12:14:29.894Z,102378.97
2022-08-07T12:20:02.544Z,102373.88
2022-08-07T12:26:05.612Z,102384.59
2022-08-07T12:31:52.350Z,102372.19
2022-08-07T12:36:53.534Z,102366.91
2022-08-07T12:41:56.816Z,102368.03
2022-08-07T12:47:09.778Z,102371.50
2022-08-07T12:52:19.225Z,102369.13
2022-08-07T12:57:38.890Z,102358.59
2022-08-07T13:10:20.665Z,102342.06
2022-08-07T13:15:31.885Z,102339.19
2022-08-07T13:20:34.125Z,102343.66
2022-08-07T13:25:50.703Z,102330.31
2022-08-07T13:31:13.134Z,102328.19
2022-08-07T13:37:20.770Z,102331.66
2022-08-07T13:42:25.910Z,102317.22
2022-08-07T13:48:06.923Z,102320.69
2022-08-07T13:52:55.059Z,102318.63
2022-08-07T13:58:31.432Z,102323.84
2022-08-07T14:04:06.872Z,102316.69
2022-08-07T14:09:04.790Z,102316.13
2022-08-07T14:14:12.188Z,102311.50
2022-08-07T14:20:40.914Z,102309.63
2022-08-07T14:24:45.676Z,102295.88
2022-08-07T14:30:05.462Z,102304.16
2022-08-07T14:35:45.327Z,102300.59
2022-08-07T14:40:49.562Z,102296.06
2022-08-07T14:45:58.059Z,102293.56
2022-08-07T14:51:04.584Z,102287.97
2022-08-07T14:56:08.857Z,102287.81
2022-08-07T15:06:40.529Z,102277.22
2022-08-07T15:12:01.464Z,102277.50
2022-08-07T15:17:13.488Z,102280.31
2022-08-07T15:22:31.216Z,102273.97
2022-08-07T15:28:04.092Z,102270.03
2022-08-07T15:44:30.215Z,102263.38
2022-08-07T15:50:05.091Z,102249.00
2022-08-07T15:55:02.350Z,102252.03
2022-08-07T16:00:06.362Z,102251.78
2022-08-07T16:05:15.178Z,102250.03
2022-08-07T16:10:30.215Z,102246.41
2022-08-07T16:15:55.482Z,102240.38
2022-08-07T16:22:03.174Z,102237.72
2022-08-07T16:26:59.339Z,102236.28
2022-08-07T16:32:06.579Z,102241.50
2022-08-07T16:38:02.763Z,102232.69
2022-08-07T16:44:03.861Z,102232.69
2022-08-07T16:50:27.190Z,102230.81
2022-08-07T16:55:23.000Z,102231.09
2022-08-07T17:01:07.946Z,102234.75
2022-08-07T17:06:29.269Z,102233.88
2022-08-07T17:12:05.017Z,102230.38
2022-08-07T17:17:44.016Z,102233.84
2022-08-07T17:23:01.543Z,102226.84
2022-08-07T17:28:13.638Z,102230.31
2022-08-07T17:34:09.732Z,102236.53
2022-08-07T17:39:10.051Z,102240.03
2022-08-07T17:44:43.962Z,102231.28
2022-08-07T17:50:03.296Z,102242.69
2022-08-07T17:55:12.672Z,102252.34
2022-08-07T18:00:32.974Z,102244.44
2022-08-07T18:06:06.654Z,102246.22
2022-08-07T18:12:11.804Z,102261.00
2022-08-07T18:17:05.383Z,102260.91
2022-08-07T18:22:26.273Z,102270.47
2022-08-07T18:27:46.232Z,102266.06
2022-08-07T18:33:27.822Z,102280.66
2022-08-07T18:38:58.640Z,102283.19
2022-08-07T18:44:26.889Z,102281.19
2022-08-07T18:50:32.559Z,102287.22
2022-08-07T18:55:57.477Z,102287.84
2022-08-07T19:02:18.325Z,102289.31
2022-08-07T19:07:04.199Z,102294.19
2022-08-07T19:12:53.451Z,102306.94
2022-08-07T19:18:11.710Z,102293.53
2022-08-07T19:23:56.928Z,102300.13
2022-08-07T19:30:53.495Z,102310.25
2022-08-07T19:34:33.820Z,102317.78
2022-08-07T19:39:56.877Z,102328.44
2022-08-07T19:45:08.505Z,102329.94
2022-08-07T19:50:43.149Z,102334.00
2022-08-07T19:55:56.353Z,102339.53
2022-08-07T20:00:57.319Z,102347.09
2022-08-07T20:06:03.107Z,102354.75
2022-08-07T20:11:12.247Z,102354.28
2022-08-07T20:16:32.324Z,102366.91
2022-08-07T20:21:48.135Z,102364.03
2022-08-07T20:26:54.542Z,102365.84
2022-08-07T20:31:59.779Z,102361.81
2022-08-07T20:37:05.606Z,102365.16
2022-08-07T20:42:11.300Z,102372.81
2022-08-07T20:47:17.904Z,102369.03
2022-08-07T20:52:51.847Z,102372.22
2022-08-07T20:58:02.437Z,102376.34
2022-08-07T21:04:21.881Z,102381.41
2022-08-07T21:09:52.470Z,102381.09
2022-08-07T21:15:05.390Z,102389.47
2022-08-07T21:20:26.683Z,102386.03
2022-08-07T21:26:03.195Z,102391.38
2022-08-07T21:31:14.349Z,102394.84
2022-08-07T21:36:50.337Z,102398.09
2022-08-07T21:42:46.813Z,102398.91
2022-08-07T21:48:03.331Z,102392.84
2022-08-07T21:53:31.607Z,102400.28
2022-08-07T21:59:03.268Z,102406.22
2022-08-07T22:04:12.834Z,102406.50
2022-08-07T22:09:25.405Z,102415.06
2022-08-07T22:14:37.579Z,102414.19
2022-08-07T22:20:23.559Z,102424.75
2022-08-07T22:25:56.957Z,102425.03
2022-08-07T22:31:05.573Z,102423.81
2022-08-07T22:36:29.282Z,102429.81
2022-08-07T22:42:03.302Z,102434.47
2022-08-07T22:47:23.256Z,102446.97
2022-08-07T22:52:48.000Z,102450.03
2022-08-07T22:58:10.576Z,102458.56
2022-08-07T23:03:58.278Z,102461.56
2022-08-07T23:10:06.383Z,102462.38
2022-08-07T23:15:04.659Z,102467.06
2022-08-07T23:20:58.676Z,102470.59
2022-08-07T23:26:25.159Z,102472.81
2022-08-07T23:34:19.765Z,102472.00
2022-08-07T23:37:35.472Z,102472.91
2022-08-07T23:43:07.780Z,102472.13
2022-08-07T23:48:32.929Z,102463.75
2022-08-07T23:53:51.061Z,102471.22
2022-08-07T23:58:59.310Z,102484.88
